createdAt,value
2022-08-19T00:00:08.574Z,29.05
2022-08-19T00:02:37.790Z,31.83
2022-08-19T00:05:20.514Z,32.10
2022-08-19T00:07:49.739Z,33.70
2022-08-19T00:10:23.089Z,34.40
2022-08-19T00:12:52.391Z,34.78
2022-08-19T00:15:24.947Z,32.33
2022-08-19T00:17:53.361Z,35.67
2022-08-19T00:20:28.286Z,34.22
2022-08-19T00:23:05.140Z,41.83
2022-08-19T00:25:35.570Z,39.80
2022-08-19T00:28:06.596Z,43.03
2022-08-19T00:30:34.974Z,42.53
2022-08-19T00:33:04.472Z,45.17
2022-08-19T00:35:36.936Z,42.03
2022-08-19T00:38:07.317Z,43.90
2022-08-19T00:40:37.592Z,41.65
2022-08-19T00:43:14.142Z,48.83
2022-08-19T00:45:45.929Z,46.67
2022-08-19T00:48:14.823Z,48.13
2022-08-19T00:50:52.100Z,47.28
2022-08-19T00:53:27.489Z,46.60
2022-08-19T00:55:58.580Z,47.55
2022-08-19T00:58:31.394Z,48.58
2022-08-19T01:00:59.937Z,48.25
2022-08-19T01:03:28.295Z,46.28
2022-08-19T01:05:58.423Z,43.53
2022-08-19T01:08:31.324Z,48.08
2022-08-19T01:11:03.128Z,41.22
2022-08-19T01:13:49.183Z,41.75
2022-08-19T01:16:20.512Z,40.65
2022-08-19T01:18:53.115Z,39.05
2022-08-19T01:21:29.148Z,39.13
2022-08-19T01:24:06.394Z,35.47
2022-08-19T01:26:42.069Z,42.03
2022-08-19T01:29:11.656Z,35.22
2022-08-19T01:31:40.355Z,34.90
2022-08-19T01:34:13.439Z,36.95
2022-08-19T01:36:48.365Z,36.63
2022-08-19T01:39:29.913Z,33.33
2022-08-19T01:41:58.340Z,36.97
2022-08-19T01:44:29.873Z,38.58
2022-08-19T01:46:58.381Z,36.05
2022-08-19T01:49:27.660Z,37.53
2022-08-19T01:51:58.388Z,38.10
2022-08-19T01:54:28.181Z,43.20
2022-08-19T01:57:03.836Z,41.67
2022-08-19T01:59:33.660Z,38.45
2022-08-19T02:02:02.212Z,42.30
2022-08-19T02:04:30.586Z,37.25
2022-08-19T02:07:00.020Z,36.92
2022-08-19T02:09:30.848Z,34.75
2022-08-19T02:11:59.486Z,36.00
2022-08-19T02:14:28.808Z,34.83
2022-08-19T02:17:00.748Z,40.05
2022-08-19T02:19:29.350Z,42.00
2022-08-19T02:21:57.630Z,38.55
2022-08-19T02:24:28.590Z,38.67
2022-08-19T02:27:00.914Z,44.00
2022-08-19T02:29:29.256Z,38.63
2022-08-19T02:31:58.079Z,43.67
2022-08-19T02:34:30.454Z,41.13
2022-08-19T02:37:03.447Z,39.90
2022-08-19T02:39:31.202Z,39.45
2022-08-19T02:42:02.237Z,40.15
2022-08-19T02:44:32.147Z,38.45
2022-08-19T02:47:01.299Z,40.95
2022-08-19T02:49:30.181Z,42.78
2022-08-19T02:52:07.557Z,44.10
2022-08-19T02:54:36.071Z,39.72
2022-08-19T02:57:06.602Z,42.40
2022-08-19T02:59:35.325Z,42.63
2022-08-19T03:02:03.855Z,45.00
2022-08-19T03:04:34.094Z,40.65
2022-08-19T03:07:10.783Z,39.72
2022-08-19T03:09:44.883Z,41.58
2022-08-19T03:12:16.885Z,39.33
2022-08-19T03:14:49.232Z,35.17
2022-08-19T03:17:19.081Z,41.58
2022-08-19T03:19:50.586Z,38.05
2022-08-19T03:22:22.824Z,36.28
2022-08-19T03:24:51.277Z,35.72
2022-08-19T03:27:22.587Z,36.15
2022-08-19T03:29:51.576Z,37.70
2022-08-19T03:32:32.550Z,38.65
2022-08-19T03:35:01.845Z,34.60
2022-08-19T03:37:30.674Z,36.45
2022-08-19T03:39:59.074Z,37.35
2022-08-19T03:42:38.513Z,33.85
2022-08-19T03:45:17.683Z,34.78
2022-08-19T03:47:46.498Z,31.05
2022-08-19T03:50:16.045Z,32.45
2022-08-19T03:52:46.987Z,33.55
2022-08-19T03:55:15.587Z,34.13
2022-08-19T03:57:46.127Z,32.78
2022-08-19T04:00:19.019Z,35.28
2022-08-19T04:02:58.331Z,30.42
2022-08-19T04:05:32.869Z,33.58
2022-08-19T04:08:01.817Z,33.47
2022-08-19T04:10:30.370Z,28.95
2022-08-19T04:13:00.089Z,28.48
2022-08-19T04:15:34.514Z,35.03
2022-08-19T04:18:03.093Z,34.20
2022-08-19T04:20:33.412Z,28.77
2022-08-19T04:23:04.323Z,27.73
2022-08-19T04:25:37.997Z,31.02
2022-08-19T04:28:08.249Z,29.98
2022-08-19T04:30:41.573Z,27.02
2022-08-19T04:33:10.675Z,28.10
2022-08-19T04:35:41.233Z,32.63
2022-08-19T04:38:10.201Z,31.95
2022-08-19T04:41:00.916Z,30.80
2022-08-19T04:43:30.780Z,28.58
2022-08-19T04:46:00.814Z,27.15
2022-08-19T04:48:29.848Z,25.90
2022-08-19T04:51:04.187Z,28.88
2022-08-19T04:53:38.050Z,29.00
2022-08-19T04:56:09.294Z,26.80
2022-08-19T04:58:41.997Z,24.38
2022-08-19T05:01:12.009Z,26.10
2022-08-19T05:03:44.059Z,27.85
2022-08-19T05:06:18.055Z,29.92
2022-08-19T05:08:48.171Z,29.27
2022-08-19T05:11:25.903Z,23.52
2022-08-19T05:13:57.087Z,23.65
2022-08-19T05:16:27.626Z,24.88
2022-08-19T05:19:14.831Z,24.63
2022-08-19T05:22:01.976Z,24.65
2022-08-19T05:24:31.860Z,24.70
2022-08-19T05:27:01.015Z,24.00
2022-08-19T05:29:40.125Z,21.45
2022-08-19T05:32:12.849Z,29.02
2022-08-19T05:34:41.269Z,22.70
2022-08-19T05:37:11.502Z,25.73
2022-08-19T05:39:41.540Z,21.20
2022-08-19T05:42:12.405Z,20.05
2022-08-19T05:44:46.977Z,23.13
2022-08-19T05:47:20.694Z,18.90
2022-08-19T05:49:50.808Z,21.63
2022-08-19T05:52:25.849Z,18.90
2022-08-19T05:54:56.858Z,22.00
2022-08-19T05:57:25.709Z,20.13
2022-08-19T05:59:58.145Z,17.95
2022-08-19T06:02:32.456Z,18.75
2022-08-19T06:05:01.217Z,18.23
2022-08-19T06:07:32.746Z,19.08
2022-08-19T06:10:01.566Z,18.88
2022-08-19T06:12:32.697Z,19.15
2022-08-19T06:15:03.721Z,18.42
2022-08-19T06:17:32.707Z,17.52
2022-08-19T06:20:04.462Z,20.73
2022-08-19T06:22:35.123Z,18.50
2022-08-19T06:25:05.139Z,22.35
2022-08-19T06:27:34.719Z,16.33
2022-08-19T06:30:05.660Z,18.52
2022-08-19T06:32:34.500Z,16.83
2022-08-19T06:35:05.543Z,14.73
2022-08-19T06:37:33.830Z,15.90
2022-08-19T06:40:02.445Z,18.80
2022-08-19T06:42:39.327Z,19.45
2022-08-19T06:45:15.806Z,18.13
2022-08-19T06:47:49.330Z,22.25
2022-08-19T06:50:18.249Z,15.82
2022-08-19T06:52:51.174Z,19.23
2022-08-19T06:55:19.540Z,17.00
2022-08-19T06:57:49.200Z,22.08
2022-08-19T07:00:19.181Z,17.45
2022-08-19T07:02:53.221Z,19.30
2022-08-19T07:05:41.179Z,19.40
2022-08-19T07:08:20.678Z,18.08
2022-08-19T07:10:52.380Z,16.20
2022-08-19T07:13:29.660Z,17.15
2022-08-19T07:16:05.741Z,19.10
2022-08-19T07:18:43.884Z,18.23
2022-08-19T07:21:15.767Z,20.02
2022-08-19T07:23:47.506Z,16.20
2022-08-19T07:26:18.091Z,18.98
2022-08-19T07:28:51.517Z,22.13
2022-08-19T07:31:31.169Z,21.90
2022-08-19T07:34:03.485Z,17.58
2022-08-19T07:36:33.592Z,16.33
2022-08-19T07:39:05.356Z,17.10
2022-08-19T07:41:33.987Z,18.42
2022-08-19T07:44:04.771Z,19.33
2022-08-19T07:46:35.871Z,13.73
2022-08-19T07:49:05.593Z,15.23
2022-08-19T07:51:36.523Z,16.08
2022-08-19T07:54:05.927Z,16.00
2022-08-19T07:56:37.535Z,18.20
2022-08-19T07:59:06.163Z,18.52
2022-08-19T08:01:41.832Z,12.98
2022-08-19T08:04:28.837Z,15.68
2022-08-19T08:07:14.863Z,12.70
2022-08-19T08:09:49.520Z,16.83
2022-08-19T08:12:34.161Z,16.05
2022-08-19T08:15:08.242Z,16.77
2022-08-19T08:17:49.044Z,14.25
2022-08-19T08:20:18.951Z,19.42
2022-08-19T08:23:06.079Z,13.30
2022-08-19T08:25:35.347Z,15.38
2022-08-19T08:28:07.264Z,14.00
2022-08-19T08:30:38.297Z,15.57
2022-08-19T08:33:07.976Z,13.35
2022-08-19T08:35:37.795Z,15.75
2022-08-19T08:38:06.458Z,11.95
2022-08-19T08:40:41.855Z,14.52
2022-08-19T08:43:16.147Z,15.75
2022-08-19T08:45:53.919Z,15.70
2022-08-19T08:48:34.246Z,16.35
2022-08-19T08:51:10.636Z,15.07
2022-08-19T08:53:41.963Z,17.20
2022-08-19T08:56:17.144Z,17.52
2022-08-19T08:58:56.586Z,17.13
2022-08-19T09:01:24.893Z,16.75
2022-08-19T09:04:03.096Z,14.25
2022-08-19T09:06:41.006Z,16.30
2022-08-19T09:09:16.808Z,17.20
2022-08-19T09:12:01.787Z,17.60
2022-08-19T09:14:50.692Z,18.67
2022-08-19T09:17:22.051Z,17.05
2022-08-19T09:19:57.533Z,14.32
2022-08-19T09:22:27.895Z,14.23
2022-08-19T09:24:57.691Z,14.27
2022-08-19T09:27:42.768Z,17.30
2022-08-19T09:30:16.327Z,13.10
2022-08-19T09:32:53.063Z,12.73
2022-08-19T09:35:24.953Z,12.48
2022-08-19T09:38:00.059Z,17.02
2022-08-19T09:40:37.778Z,15.52
2022-08-19T09:43:13.035Z,15.02
2022-08-19T09:45:42.761Z,17.27
2022-08-19T09:48:19.095Z,15.50
2022-08-19T09:50:53.292Z,13.93
2022-08-19T09:53:26.598Z,16.30
2022-08-19T09:56:00.829Z,19.88
2022-08-19T09:58:37.149Z,13.85
2022-08-19T10:01:07.121Z,21.00
2022-08-19T10:03:38.454Z,14.88
2022-08-19T10:06:15.150Z,14.95
2022-08-19T10:08:50.416Z,15.15
2022-08-19T10:11:28.209Z,14.77
2022-08-19T10:14:03.294Z,15.73
2022-08-19T10:16:31.599Z,16.08
2022-08-19T10:19:11.681Z,13.60
2022-08-19T10:21:42.493Z,11.45
2022-08-19T10:24:11.439Z,13.88
2022-08-19T10:26:43.083Z,13.10
2022-08-19T10:29:32.853Z,14.05
2022-08-19T10:32:02.590Z,12.98
2022-08-19T10:34:34.386Z,11.85
2022-08-19T10:37:10.738Z,12.23
2022-08-19T10:39:43.359Z,12.18
2022-08-19T10:42:14.045Z,10.63
2022-08-19T10:44:43.593Z,12.30
2022-08-19T10:47:24.981Z,9.80
2022-08-19T10:50:13.105Z,9.50
2022-08-19T10:52:50.639Z,7.45
2022-08-19T10:55:42.765Z,9.15
2022-08-19T10:58:15.427Z,8.82
2022-08-19T11:00:54.908Z,9.05
2022-08-19T11:03:26.564Z,9.57
2022-08-19T11:06:07.833Z,8.85
2022-08-19T11:08:41.356Z,7.80
2022-08-19T11:11:10.315Z,7.15
2022-08-19T11:13:41.245Z,6.63
2022-08-19T11:16:21.158Z,7.70
2022-08-19T11:18:52.964Z,6.88
2022-08-19T11:21:26.038Z,7.10
2022-08-19T11:24:03.203Z,5.10
2022-08-19T11:26:34.092Z,4.47
2022-08-19T11:29:07.391Z,7.45
2022-08-19T11:31:39.395Z,4.63
2022-08-19T11:34:09.952Z,5.35
2022-08-19T11:36:46.384Z,6.72
2022-08-19T11:39:24.389Z,5.05
2022-08-19T11:41:56.279Z,5.80
2022-08-19T11:44:28.747Z,5.53
2022-08-19T11:47:08.764Z,6.07
2022-08-19T11:49:40.738Z,7.78
2022-08-19T11:52:14.581Z,6.90
2022-08-19T11:54:44.319Z,4.32
2022-08-19T11:57:17.867Z,4.10
2022-08-19T11:59:51.531Z,3.88
2022-08-19T12:02:20.161Z,5.18
2022-08-19T12:04:51.206Z,4.32
2022-08-19T12:07:19.664Z,5.00
2022-08-19T12:09:50.589Z,3.63
2022-08-19T12:12:19.106Z,6.97
2022-08-19T12:14:47.591Z,4.97
2022-08-19T12:17:16.254Z,4.32
2022-08-19T12:19:44.638Z,4.32
2022-08-19T12:22:13.413Z,5.20
2022-08-19T12:24:44.563Z,6.78
2022-08-19T12:27:32.179Z,3.97
2022-08-19T12:30:10.037Z,4.40
2022-08-19T12:32:38.660Z,4.55
2022-08-19T12:35:10.073Z,6.35
2022-08-19T12:37:41.573Z,3.75
2022-08-19T12:40:12.987Z,3.70
2022-08-19T12:42:43.307Z,3.20
2022-08-19T12:45:13.028Z,4.65
2022-08-19T12:47:46.179Z,3.58
2022-08-19T12:50:16.022Z,4.45
2022-08-19T12:52:44.326Z,2.92
2022-08-19T12:55:15.391Z,3.50
2022-08-19T12:57:45.107Z,3.58
2022-08-19T13:00:15.878Z,4.30
2022-08-19T13:02:46.560Z,2.65
2022-08-19T13:05:21.077Z,2.92
2022-08-19T13:07:49.610Z,2.97
2022-08-19T13:10:24.502Z,3.85
2022-08-19T13:12:57.179Z,2.05
2022-08-19T13:15:26.108Z,2.10
2022-08-19T13:17:56.926Z,2.30
2022-08-19T13:20:26.489Z,2.63
2022-08-19T13:22:58.269Z,2.63
2022-08-19T13:25:27.619Z,3.63
2022-08-19T13:28:00.238Z,2.10
2022-08-19T13:30:46.145Z,2.03
2022-08-19T13:33:15.571Z,2.95
2022-08-19T13:35:49.966Z,2.33
2022-08-19T13:38:22.757Z,2.50
2022-08-19T13:40:52.492Z,2.80
2022-08-19T13:43:24.022Z,2.42
2022-08-19T13:45:54.837Z,3.55
2022-08-19T13:48:24.646Z,2.72
2022-08-19T13:50:54.312Z,2.92
2022-08-19T13:53:22.593Z,2.03
2022-08-19T13:55:52.050Z,1.67
2022-08-19T13:58:22.017Z,4.15
2022-08-19T14:00:50.745Z,2.70
2022-08-19T14:03:23.910Z,3.83
2022-08-19T14:05:53.449Z,2.13
2022-08-19T14:08:21.887Z,2.38
2022-08-19T14:10:51.682Z,2.78
2022-08-19T14:13:23.566Z,2.30
2022-08-19T14:15:54.165Z,2.63
2022-08-19T14:18:22.997Z,3.90
2022-08-19T14:20:57.262Z,7.75
2022-08-19T14:23:28.911Z,10.02
2022-08-19T14:26:05.918Z,8.00
2022-08-19T14:28:36.063Z,12.98
2022-08-19T14:31:04.356Z,11.07
2022-08-19T14:33:33.607Z,8.23
2022-08-19T14:36:03.064Z,3.83
2022-08-19T14:38:34.344Z,3.90
2022-08-19T14:41:17.383Z,7.22
2022-08-19T14:43:48.411Z,4.80
2022-08-19T14:46:21.989Z,3.58
2022-08-19T14:48:56.092Z,3.35
2022-08-19T14:51:27.712Z,3.45
2022-08-19T14:53:59.072Z,4.47
2022-08-19T14:56:29.177Z,4.53
2022-08-19T14:59:02.094Z,2.45
2022-08-19T15:01:30.568Z,3.17
2022-08-19T15:04:04.023Z,3.70
2022-08-19T15:06:32.722Z,4.03
2022-08-19T15:09:04.229Z,2.85
2022-08-19T15:11:35.108Z,3.42
2022-08-19T15:14:06.288Z,3.20
2022-08-19T15:16:34.842Z,5.30
2022-08-19T15:19:03.562Z,2.95
2022-08-19T15:21:33.532Z,3.63
2022-08-19T15:24:02.721Z,4.38
2022-08-19T15:26:36.246Z,3.75
2022-08-19T15:29:06.986Z,4.13
2022-08-19T15:31:38.073Z,5.32
2022-08-19T15:34:10.201Z,5.15
2022-08-19T15:36:39.087Z,5.10
2022-08-19T15:39:14.149Z,6.47
2022-08-19T15:41:45.240Z,5.78
2022-08-19T15:44:18.622Z,4.32
2022-08-19T15:46:50.390Z,9.43
2022-08-19T15:49:21.101Z,7.00
2022-08-19T15:51:51.990Z,7.07
2022-08-19T15:54:23.382Z,5.95
2022-08-19T15:57:12.825Z,6.85
2022-08-19T16:00:00.128Z,7.30
2022-08-19T16:02:53.738Z,7.70
2022-08-19T16:05:46.093Z,9.48
2022-08-19T16:08:15.570Z,8.05
2022-08-19T16:10:46.034Z,9.77
2022-08-19T16:13:17.072Z,13.18
2022-08-19T16:15:46.809Z,8.23
2022-08-19T16:18:15.578Z,8.48
2022-08-19T16:20:44.344Z,8.35
2022-08-19T16:23:12.598Z,9.25
2022-08-19T16:25:40.895Z,8.45
2022-08-19T16:28:10.629Z,9.18
2022-08-19T16:30:43.116Z,9.13
2022-08-19T16:33:23.285Z,11.02
2022-08-19T16:36:00.065Z,9.48
2022-08-19T16:38:31.434Z,8.52
2022-08-19T16:41:01.462Z,10.20
2022-08-19T16:43:32.110Z,8.95
2022-08-19T16:46:01.656Z,9.02
2022-08-19T16:48:34.771Z,11.10
2022-08-19T16:51:09.441Z,8.25
2022-08-19T16:53:43.029Z,8.70
2022-08-19T16:56:12.762Z,8.82
2022-08-19T16:58:41.086Z,9.63
2022-08-19T17:01:11.301Z,8.93
2022-08-19T17:03:41.267Z,8.82
2022-08-19T17:06:15.892Z,8.23
2022-08-19T17:08:52.915Z,8.55
2022-08-19T17:11:32.291Z,8.20
2022-08-19T17:14:02.228Z,8.77
2022-08-19T17:16:34.877Z,7.93
2022-08-19T17:19:07.044Z,8.38
2022-08-19T17:21:37.800Z,8.35
2022-08-19T17:24:08.758Z,9.27
2022-08-19T17:26:42.701Z,7.75
2022-08-19T17:29:12.037Z,8.40
2022-08-19T17:31:40.360Z,8.20
2022-08-19T17:34:13.027Z,9.23
2022-08-19T17:36:43.872Z,9.60
2022-08-19T17:39:12.148Z,10.18
2022-08-19T17:41:40.478Z,9.15
2022-08-19T17:44:13.135Z,10.57
2022-08-19T17:46:42.644Z,10.70
2022-08-19T17:49:14.466Z,9.27
2022-08-19T17:51:47.132Z,9.48
2022-08-19T17:54:18.879Z,10.38
2022-08-19T17:56:51.207Z,11.48
2022-08-19T17:59:19.542Z,9.88
2022-08-19T18:01:53.681Z,10.45
2022-08-19T18:04:25.490Z,11.80
2022-08-19T18:06:55.424Z,11.93
2022-08-19T18:09:26.357Z,13.95
2022-08-19T18:11:56.983Z,11.50
2022-08-19T18:14:33.726Z,12.98
2022-08-19T18:17:06.345Z,14.38
2022-08-19T18:19:41.442Z,11.95
2022-08-19T18:22:14.085Z,14.40
2022-08-19T18:24:46.051Z,13.32
2022-08-19T18:27:17.488Z,14.15
2022-08-19T18:29:49.031Z,13.88
2022-08-19T18:32:23.118Z,15.57
2022-08-19T18:34:56.456Z,16.05
2022-08-19T18:37:26.839Z,14.88
2022-08-19T18:40:28.813Z,12.98
2022-08-19T18:43:16.603Z,14.88
2022-08-19T18:46:03.031Z,13.35
2022-08-19T18:48:52.683Z,9.73
2022-08-19T18:51:28.160Z,12.27
2022-08-19T18:54:00.036Z,8.82
2022-08-19T18:56:32.257Z,8.77
2022-08-19T18:59:02.601Z,6.82
2022-08-19T19:01:35.552Z,8.80
2022-08-19T19:04:07.010Z,7.65
2022-08-19T19:06:40.434Z,8.38
2022-08-19T19:09:10.848Z,8.07
2022-08-19T19:11:41.071Z,7.78
2022-08-19T19:14:23.028Z,4.88
2022-08-19T19:17:04.414Z,7.15
2022-08-19T19:19:42.371Z,8.38
2022-08-19T19:22:14.265Z,8.02
2022-08-19T19:24:44.244Z,4.93
2022-08-19T19:27:14.519Z,8.85
2022-08-19T19:29:47.427Z,8.90
2022-08-19T19:32:23.388Z,7.03
2022-08-19T19:34:52.787Z,9.30
2022-08-19T19:37:23.477Z,9.63
2022-08-19T19:39:54.335Z,10.32
2022-08-19T19:42:24.202Z,7.88
2022-08-19T19:44:56.511Z,10.07
2022-08-19T19:47:25.701Z,9.35
2022-08-19T19:52:49.972Z,9.48
2022-08-19T19:55:21.531Z,14.70
2022-08-19T19:57:53.771Z,10.10
2022-08-19T20:00:26.481Z,11.57
2022-08-19T20:02:56.870Z,15.90
2022-08-19T20:05:28.789Z,14.73
2022-08-19T20:08:16.169Z,11.43
2022-08-19T20:10:46.963Z,17.92
2022-08-19T20:13:17.797Z,9.13
2022-08-19T20:15:46.685Z,7.05
2022-08-19T20:18:15.379Z,10.63
2022-08-19T20:20:45.032Z,12.15
2022-08-19T20:23:15.229Z,8.45
2022-08-19T20:25:46.865Z,10.05
2022-08-19T20:28:17.924Z,9.48
2022-08-19T20:30:48.065Z,9.25
2022-08-19T20:33:19.649Z,11.88
2022-08-19T20:35:50.977Z,7.97
2022-08-19T20:38:20.619Z,8.43
2022-08-19T20:40:48.880Z,8.45
2022-08-19T20:43:17.141Z,8.30
2022-08-19T20:45:48.065Z,8.77
2022-08-19T20:48:21.027Z,9.35
2022-08-19T20:50:49.477Z,8.30
2022-08-19T20:53:23.757Z,9.20
2022-08-19T20:55:59.945Z,7.63
2022-08-19T20:58:28.928Z,6.60
2022-08-19T21:01:00.864Z,10.43
2022-08-19T21:03:32.539Z,8.55
2022-08-19T21:06:04.382Z,8.98
2022-08-19T21:08:34.269Z,7.28
2022-08-19T21:11:03.453Z,6.53
2022-08-19T21:13:32.291Z,6.75
2022-08-19T21:16:01.981Z,6.45
2022-08-19T21:18:35.441Z,6.53
2022-08-19T21:21:06.897Z,5.57
2022-08-19T21:23:37.000Z,7.50
2022-08-19T21:26:06.612Z,7.60
2022-08-19T21:28:36.372Z,6.78
2022-08-19T21:31:07.125Z,6.75
2022-08-19T21:33:39.069Z,5.05
2022-08-19T21:36:08.155Z,4.43
2022-08-19T21:38:38.926Z,5.13
2022-08-19T21:41:08.352Z,5.93
2022-08-19T21:43:37.386Z,7.32
2022-08-19T21:46:06.083Z,6.38
2022-08-19T21:48:34.435Z,4.93
2022-08-19T21:51:02.981Z,5.28
2022-08-19T21:53:34.429Z,5.28
2022-08-19T21:56:06.459Z,5.55
2022-08-19T21:58:38.119Z,5.32
2022-08-19T22:01:08.150Z,4.93
2022-08-19T22:03:38.640Z,5.57
2022-08-19T22:06:07.426Z,5.82
2022-08-19T22:08:42.247Z,7.65
2022-08-19T22:11:14.368Z,6.00
2022-08-19T22:13:42.646Z,5.88
2022-08-19T22:16:14.120Z,5.03
2022-08-19T22:18:48.473Z,5.88
2022-08-19T22:21:37.419Z,7.53
2022-08-19T22:24:11.872Z,7.45
2022-08-19T22:26:49.222Z,6.63
2022-08-19T22:29:17.827Z,6.38
2022-08-19T22:31:54.311Z,6.60
2022-08-19T22:34:23.239Z,8.10
2022-08-19T22:36:51.749Z,6.07
2022-08-19T22:39:22.762Z,7.20
2022-08-19T22:41:52.702Z,8.30
2022-08-19T22:44:20.995Z,8.50
2022-08-19T22:46:50.441Z,9.10
2022-08-19T22:49:21.148Z,9.90
2022-08-19T22:52:06.645Z,10.45
2022-08-19T22:54:36.221Z,9.77
2022-08-19T22:57:06.061Z,11.38
2022-08-19T22:59:36.042Z,11.90
2022-08-19T23:02:04.744Z,10.85
2022-08-19T23:04:37.160Z,10.48
2022-08-19T23:07:05.985Z,11.10
2022-08-19T23:09:34.410Z,10.75
2022-08-19T23:12:09.520Z,11.57
2022-08-19T23:14:38.308Z,8.75
2022-08-19T23:17:06.969Z,12.10
2022-08-19T23:19:38.410Z,10.02
2022-08-19T23:22:08.395Z,12.07
2022-08-19T23:24:39.361Z,11.27
2022-08-19T23:27:26.730Z,10.75
2022-08-19T23:30:12.460Z,11.88
2022-08-19T23:32:43.284Z,7.95
2022-08-19T23:35:12.386Z,11.43
2022-08-19T23:37:43.669Z,13.18
2022-08-19T23:40:12.535Z,11.23
2022-08-19T23:42:46.641Z,11.90
2022-08-19T23:45:15.826Z,13.38
2022-08-19T23:47:53.360Z,11.02
2022-08-19T23:50:22.765Z,11.90
2022-08-19T23:52:57.219Z,9.73
2022-08-19T23:55:27.752Z,12.93
2022-08-19T23:57:58.190Z,9.90
